• Join FlightAware (Why Join?)
  • Login
  • US Flag 
08:30PM EDT


 

Airport Tracker/Info


-or-


 

Live Flight TrackerFlight Track Log ✈ GJS3706 ✈ 30-Jun-2013 ✈ KORD - KALB

Flight Track Log - Related Links

Times and Time Zones

All times are in EDT time to prevent confusion due to time zone crossing. See the GJS3706 flight status page for this flight to view local times or setup timezone preferences in your user account.

Time Position Orientation Groundspeed Altitude Reporting Facility
EDT Latitude Longitude Course Direction KTS MPH feet Rate Location/Type
09:53AM 42.0167 -87.9167 86° East 174 200 2,400  Level Chicago TRACON
09:54AM 42.0667 -87.8667 37° Northeast 237 273 3,600 1,080 Climbing Chicago TRACON
09:55AM 42.0961 -87.7753 67° East 247 284 4,800 1,800 Climbing Chicago Center
09:56AM 42.1659 -87.3523 66° East  Level FlightAware Approximate
09:56AM 42.1194 -87.6878 70° East 249 287 7,500  Level Chicago Center
09:57AM 42.2133 -87.2102 66° East  Level FlightAware Approximate
09:57AM 42.1428 -87.5944 71° East 258 297 10,000  Level Chicago Center
09:58AM 42.2607 -87.0679 66° East  Level FlightAware Approximate
09:58AM 42.1781 -87.4589 71° East 321 369 11,500  Level Chicago Center
09:59AM 42.2707 -86.9175 86° East  Level FlightAware Approximate
10:00AM 42.2103 -87.3325 71° East 355 409 13,800  Level Chicago Center
10:01AM 42.2436 -87.2067 70° East 357 411 15,900 1,860 Climbing Chicago Center
10:02AM 42.2753 -87.0756 72° East 365 420 17,700 1,620 Climbing Chicago Center
10:03AM 42.2842 -86.9314 85° East 383 441 19,300 1,320 Climbing Chicago Center
10:04AM 42.2914 -86.7483 87° East 406 467 20,500 1,140 Climbing Chicago Center
10:05AM 42.2964 -86.6069 87° East 423 487 21,700 1,200 Climbing Chicago Center
10:06AM 42.3031 -86.4231 87° East 430 495 23,000 1,140 Climbing Chicago Center
10:07AM 42.3094 -86.2581 87° East 441 507 24,100 1,020 Climbing Chicago Center
10:08AM 42.3153 -86.0911 87° East 448 516 25,100 960 Climbing Chicago Center
10:09AM 42.3139 -85.9211 91° East 456 525 26,100 900 Climbing Chicago Center
10:10AM 42.3108 -85.7483 91° East 461 531 27,000 960 Climbing Chicago Center
10:11AM 42.3083 -85.5408 91° East 465 535 28,100 1,080 Climbing Chicago Center
10:12AM 42.3061 -85.3650 91° East 469 540 29,300 1,140 Climbing Chicago Center
10:13AM 42.3044 -85.1950 91° East 460 529 30,500 1,020 Climbing Chicago Center
10:14AM 42.3003 -85.0264 92° East 453 521 31,500 960 Climbing Chicago Center
10:15AM 42.3069 -84.8583 87° East 451 519 32,500 720 Climbing Chicago Center
10:16AM 42.3183 -84.6556 86° East 451 519 33,000 240 Climbing Chicago Center
10:17AM 42.3289 -84.4850 85° East 456 525 33,000 120 Level Chicago Center
10:18AM 42.3378 -84.3142 86° East 458 527 33,300 480 Climbing Chicago Center
10:19AM 42.3461 -84.0950 87° East 457 526 34,100 600 Climbing Cleveland Center
10:20AM 42.3556 -83.9214 86° East 457 526 34,700 600 Climbing Cleveland Center
10:21AM 42.3644 -83.7475 86° East 457 526 35,300 600 Climbing Cleveland Center
10:22AM 42.3722 -83.6131 85° East 457 526 35,900 600 Climbing Cleveland Center
10:23AM 42.3836 -83.4194 85° East 464 534 36,600 540 Climbing Cleveland Center
10:24AM 42.4006 -83.2264 83° East 464 534 37,000 180 Climbing Cleveland Center
10:25AM 42.4125 -83.0636 84° East 469 540 37,000  Level Cleveland Center
10:26AM 42.4267 -82.8869 84° East 469 540 37,000  Level Cleveland Center
10:27AM 42.4406 -82.7103 84° East 469 540 37,000  Level Cleveland Center
10:28AM 42.4519 -82.5306 85° East 469 540 37,000  Level Cleveland Center
10:29AM 42.4653 -82.3536 84° East 474 545 37,000  Level Cleveland Center
10:30AM 42.4783 -82.1736 84° East 474 545 37,000  Level Cleveland Center
10:31AM 42.4911 -81.9939 84° East 479 551 37,000  Level Cleveland Center
10:32AM 42.5017 -81.8111 85° East 479 551 37,000  Level Cleveland Center
10:33AM 42.5158 -81.6281 84° East 479 551 37,000  Level Cleveland Center
10:34AM 42.5278 -81.4369 85° East 493 567 37,000  Level Cleveland Center
10:35AM 42.5394 -81.2539 85° East 499 574 37,000  Level Cleveland Center
10:36AM 42.5531 -81.0453 85° East 499 574 37,000  Level Cleveland Center
10:37AM 42.5642 -80.8539 85° East 499 574 37,000  Level Cleveland Center
10:38AM 42.5728 -80.6650 86° East 499 574 37,000  Level Cleveland Center
10:39AM 42.5853 -80.4703 85° East 504 580 37,000  Level Cleveland Center
10:40AM 42.5953 -80.2786 86° East 504 580 37,000  Level Cleveland Center
10:41AM 42.6050 -80.0811 86° East 509 586 37,000  Level Cleveland Center
10:42AM 42.6167 -79.8892 85° East 518 596 37,000  Level Cleveland Center
10:43AM 42.6236 -79.6917 87° East 518 596 37,000  Level Cleveland Center
10:44AM 42.6364 -79.4939 85° East 518 596 37,000  Level Cleveland Center
10:45AM 42.6428 -79.2961 87° East 518 596 37,000  Level Cleveland Center
10:46AM 42.6528 -79.0956 86° East 518 596 37,000  Level Cleveland Center
10:47AM 42.6606 -78.8919 87° East 523 602 37,000  Level Cleveland Center
10:48AM 42.6678 -78.6914 87° East 528 608 37,000  Level Cleveland Center
10:49AM 42.6747 -78.4878 87° East 534 615 37,000 -300 Level Cleveland Center
10:50AM 42.6833 -78.2842 87° East 534 615 36,500 -960 Descending Cleveland Center
10:51AM 42.6894 -78.0833 88° East 534 615 35,100 -1,740 Descending Cleveland Center
10:52AM 42.6956 -77.8825 88° East 534 615 33,100 -1,740 Descending Cleveland Center
10:53AM 42.7011 -77.6900 88° East 529 609 31,700 -1,140 Descending Cleveland Center
10:54AM 42.7069 -77.5061 87° East 529 609 30,900 -840 Descending Cleveland Center
10:56AM 42.7139 -77.1883 88° East 531 611 29,600 -720 Descending Boston Center
10:57AM 42.7178 -76.9936 88° East 521 600 29,100 -300 Descending Boston Center
10:58AM 42.7233 -76.7989 88° East 515 593 29,000 -60 Descending Boston Center
10:59AM 42.7264 -76.6039 89° East 515 593 29,000  Level Boston Center
11:00AM 42.7314 -76.4092 88° East 515 593 29,000  Level Boston Center
11:01AM 42.7350 -76.1747 89° East 515 593 29,000  Level Boston Center
11:02AM 42.7369 -75.9825 89° East 515 593 29,000 -300 Level Boston Center
11:03AM 42.7408 -75.7875 88° East 515 593 28,400 -2,100 Descending Boston Center
11:04AM 42.7411 -75.5614 90° East 509 586 24,500 -3,600 Descending Boston Center
11:05AM 42.7436 -75.3861 89° East 488 562 21,200 -3,360 Descending Boston Center
11:06AM 42.7458 -75.2167 89° East 465 535 17,800 -3,360 Descending Boston Center
11:07AM 42.7558 -75.0558 85° East 439 505 14,500 -3,300 Descending Boston Center
11:08AM 42.7822 -74.9014 77° East 423 487 11,300 -1,800 Descending Boston Center
11:09AM 42.8086 -74.7325 78° East 412 474 11,000 -180 Descending Boston Center
11:10AM 42.8319 -74.6061 76° East 392 451 11,000  Level Boston Center
11:11AM 42.8481 -74.5244 75° East 388 447 11,000 -120 Level Boston Center
11:12AM 42.8797 -74.3894 72° East 348 400 10,900 -480 Descending Boston Center
11:13AM 42.9706 -74.3242 28° Northeast 330 380 10,000 -1,320 Descending Boston Center
11:14AM 43.0217 -74.2519 46° Northeast 300 345 8,300 -1,920 Descending Boston Center
11:15AM 43.0419 -74.1447 75° East 289 333 6,400 -1,680 Descending Boston Center
11:16AM 43.0583 -74.0314 79° East 274 315 4,800 -1,140 Descending Boston Center
11:17AM 43.0117 -73.9364 124° Southeast 267 307 4,000 -600 Descending Boston Center
11:18AM 42.9542 -73.8642 137° Southeast 263 303 3,500 -720 Descending Boston Center
11:19AM 42.8944 -73.8175 150° Southeast 239 275 2,500 -1,020 Descending Boston Center